Time;durP1;ratioP1;P1;durP2;ratioP2;P2;SDS_P1;SDS_P2;PMS_P1;PMS_P2;Temp;Humidity;BMP_temperature;BMP_pressure;BME280_temperature;BME280_humidity;BME280_pressure;Samples;Min_cycle;Max_cycle;Signal;HPM_P1;HPM_P2
2024/04/02 00:01:57;;;;;;;1.50;0.50;;;;;;;;;;5100954;28;20179;-86
2024/04/02 00:04:23;;;;;;;1.97;0.70;;;;;;;;;;5103006;28;20181;-84
2024/04/02 00:06:48;;;;;;;2.33;0.77;;;;;;;;;;5089862;28;20203;-85
2024/04/02 00:09:14;;;;;;;2.27;0.80;;;;;;;;;;5085439;28;20246;-84
2024/04/02 00:11:40;;;;;;;4.27;0.97;;;;;;;;;;5089328;28;20185;-86
2024/04/02 00:14:06;;;;;;;5.60;1.00;;;;;;;;;;5084903;28;20245;-85
2024/04/02 00:16:32;;;;;;;3.47;1.00;;;;;;;;;;5083355;28;20273;-86
2024/04/02 00:18:58;;;;;;;1.27;0.67;;;;;;;;;;5086768;28;20182;-84
2024/04/02 00:21:24;;;;;;;3.37;0.70;;;;;;;;;;5079649;28;20595;-84
2024/04/02 00:23:50;;;;;;;3.33;0.90;;;;;;;;;;5087953;28;20201;-85
2024/04/02 00:26:16;;;;;;;2.43;0.80;;;;;;;;;;5085153;28;20202;-85
2024/04/02 00:28:42;;;;;;;1.50;0.80;;;;;;;;;;5072223;28;20176;-85
2024/04/02 00:31:13;;;;;;;2.67;0.70;;;;;;;;;;5069065;28;20188;-84
2024/04/02 00:33:38;;;;;;;2.40;0.63;;;;;;;;;;5089341;28;20721;-84
2024/04/02 00:36:05;;;;;;;2.67;0.60;;;;;;;;;;5085285;28;20212;-85
2024/04/02 00:38:32;;;;;;;1.67;0.60;;;;;;;;;;5070023;28;20236;-86
2024/04/02 00:40:58;;;;;;;2.17;0.87;;;;;;;;;;5063587;28;20201;-86
2024/04/02 00:43:24;;;;;;;3.10;0.60;;;;;;;;;;5083334;28;20585;-85
2024/04/02 00:45:50;;;;;;;2.13;0.63;;;;;;;;;;5081412;28;20317;-85
2024/04/02 00:48:17;;;;;;;1.93;0.70;;;;;;;;;;5087567;28;20189;-86
2024/04/02 00:50:43;;;;;;;2.43;0.80;;;;;;;;;;5066721;28;20255;-85
2024/04/02 00:53:09;;;;;;;0.90;0.60;;;;;;;;;;5088689;28;20184;-85
2024/04/02 00:55:39;;;;;;;4.47;0.80;;;;;;;;;;5077681;28;20715;-85
2024/04/02 00:58:08;;;;;;;1.67;0.73;;;;;;;;;;5082160;28;20638;-85
2024/04/02 01:00:36;;;;;;;2.93;1.10;;;;;;;;;;5086738;28;20176;-85
2024/04/02 01:03:03;;;;;;;2.40;0.80;;;;;;;;;;5088330;28;20186;-84
2024/04/02 01:05:29;;;;;;;2.37;0.87;;;;;;;;;;5085451;28;20219;-86
2024/04/02 01:07:54;;;;;;;3.67;1.10;;;;;;;;;;5065519;28;20188;-85
2024/04/02 01:10:20;;;;;;;4.80;1.17;;;;;;;;;;5084476;28;20186;-85
2024/04/02 01:12:46;;;;;;;3.07;1.00;;;;;;;;;;5088474;28;20220;-85
2024/04/02 01:15:12;;;;;;;2.87;0.97;;;;;;;;;;5080967;28;20199;-85
2024/04/02 01:17:38;;;;;;;2.17;1.00;;;;;;;;;;5086638;28;20200;-85
2024/04/02 01:20:05;;;;;;;5.87;1.47;;;;;;;;;;5084370;28;20183;-84
2024/04/02 01:22:30;;;;;;;1.83;1.00;;;;;;;;;;5084365;28;20188;-85
2024/04/02 01:24:59;;;;;;;5.00;1.37;;;;;;;;;;5084239;28;20742;-84
2024/04/02 01:27:26;;;;;;;3.53;1.23;;;;;;;;;;5083231;28;20214;-84
2024/04/02 01:29:52;;;;;;;5.73;1.07;;;;;;;;;;5083822;28;20184;-84
2024/04/02 01:32:18;;;;;;;5.67;1.50;;;;;;;;;;5084138;28;20239;-85
2024/04/02 01:34:44;;;;;;;2.77;1.10;;;;;;;;;;5085432;28;20606;-83
2024/04/02 01:37:10;;;;;;;3.10;1.40;;;;;;;;;;5085611;28;20206;-86
2024/04/02 01:39:36;;;;;;;4.30;1.40;;;;;;;;;;5085018;28;20642;-85
2024/04/02 01:42:02;;;;;;;5.00;1.50;;;;;;;;;;5088677;28;20709;-87
2024/04/02 01:44:28;;;;;;;1.97;1.20;;;;;;;;;;5065515;28;20188;-85
2024/04/02 01:46:54;;;;;;;2.93;1.63;;;;;;;;;;5081842;28;20211;-85
2024/04/02 01:49:20;;;;;;;4.30;1.30;;;;;;;;;;5081222;28;20187;-84
2024/04/02 01:51:46;;;;;;;2.20;1.20;;;;;;;;;;5088423;28;20189;-85
2024/04/02 01:54:12;;;;;;;4.70;1.60;;;;;;;;;;5082579;28;20194;-85
2024/04/02 01:56:38;;;;;;;5.30;1.30;;;;;;;;;;5069462;28;20199;-84
2024/04/02 01:59:04;;;;;;;4.07;1.47;;;;;;;;;;5082092;28;20179;-84
2024/04/02 02:01:30;;;;;;;4.13;1.37;;;;;;;;;;5084205;28;20189;-85
2024/04/02 02:03:56;;;;;;;2.97;0.93;;;;;;;;;;5063428;28;20187;-85
2024/04/02 02:06:22;;;;;;;1.90;0.87;;;;;;;;;;5084441;28;20195;-84
2024/04/02 02:08:49;;;;;;;2.20;1.03;;;;;;;;;;5084850;28;20561;-84
2024/04/02 02:11:15;;;;;;;3.17;1.00;;;;;;;;;;5079425;28;20282;-85
2024/04/02 02:13:41;;;;;;;1.10;0.60;;;;;;;;;;5068710;28;20273;-84
2024/04/02 02:16:07;;;;;;;1.30;0.80;;;;;;;;;;5086705;28;20302;-85
2024/04/02 02:18:33;;;;;;;2.40;1.10;;;;;;;;;;5079020;28;20187;-85
2024/04/02 02:20:59;;;;;;;1.80;1.37;;;;;;;;;;5081580;28;20425;-84
2024/04/02 02:23:26;;;;;;;2.90;1.10;;;;;;;;;;5085091;28;20184;-85
2024/04/02 02:25:52;;;;;;;2.40;1.03;;;;;;;;;;5067267;28;20209;-84
2024/04/02 02:28:18;;;;;;;2.57;1.27;;;;;;;;;;5081328;28;20183;-85
2024/04/02 02:30:44;;;;;;;4.57;1.30;;;;;;;;;;5069534;28;20211;-84
2024/04/02 02:33:10;;;;;;;2.43;1.30;;;;;;;;;;5081093;28;20206;-84
2024/04/02 02:35:36;;;;;;;2.97;1.80;;;;;;;;;;5060477;28;20261;-85
2024/04/02 02:38:02;;;;;;;4.10;1.63;;;;;;;;;;5084121;28;20603;-85
2024/04/02 02:40:31;;;;;;;4.17;1.80;;;;;;;;;;5089957;28;20198;-85
2024/04/02 02:42:57;;;;;;;4.80;1.57;;;;;;;;;;5090458;28;20438;-88
2024/04/02 02:45:24;;;;;;;2.63;1.67;;;;;;;;;;5091856;28;20182;-86
2024/04/02 02:47:50;;;;;;;4.60;1.50;;;;;;;;;;5069313;28;20190;-86
2024/04/02 02:50:16;;;;;;;3.93;1.40;;;;;;;;;;5086491;28;20571;-88
2024/04/02 02:52:43;;;;;;;3.60;1.63;;;;;;;;;;5067383;28;20261;-85
2024/04/02 02:55:09;;;;;;;4.33;1.50;;;;;;;;;;5088287;28;20215;-84
2024/04/02 02:57:34;;;;;;;3.97;1.30;;;;;;;;;;5093427;28;20174;-84
2024/04/02 03:00:00;;;;;;;2.67;2.07;;;;;;;;;;5067684;28;20196;-84
2024/04/02 03:02:26;;;;;;;2.57;1.30;;;;;;;;;;5092537;28;20260;-86
2024/04/02 03:04:52;;;;;;;2.13;1.50;;;;;;;;;;5068660;28;20233;-85
2024/04/02 03:07:18;;;;;;;2.33;1.20;;;;;;;;;;5089310;28;20212;-85
2024/04/02 03:09:44;;;;;;;2.43;1.50;;;;;;;;;;5088437;28;20190;-85
2024/04/02 03:12:10;;;;;;;4.13;2.00;;;;;;;;;;5084926;28;20464;-85
2024/04/02 03:14:36;;;;;;;8.37;2.40;;;;;;;;;;5089269;28;20209;-84
2024/04/02 03:17:02;;;;;;;3.60;1.33;;;;;;;;;;5085510;28;20223;-84
2024/04/02 03:19:29;;;;;;;3.00;1.60;;;;;;;;;;5081335;28;20659;-83
2024/04/02 03:21:55;;;;;;;4.77;1.67;;;;;;;;;;5087590;28;20180;-85
2024/04/02 03:24:21;;;;;;;4.03;1.93;;;;;;;;;;5088888;28;20191;-85
2024/04/02 03:26:47;;;;;;;5.37;1.80;;;;;;;;;;5066467;28;20558;-85
2024/04/02 03:29:13;;;;;;;4.17;1.60;;;;;;;;;;5090608;28;20182;-84
2024/04/02 03:31:39;;;;;;;4.60;1.60;;;;;;;;;;5068003;28;20658;-85
2024/04/02 03:34:05;;;;;;;3.40;1.20;;;;;;;;;;5090413;28;20186;-84
2024/04/02 03:36:31;;;;;;;3.57;1.50;;;;;;;;;;5088069;28;20207;-85
2024/04/02 03:38:57;;;;;;;2.07;1.37;;;;;;;;;;5070025;28;20680;-85
2024/04/02 03:41:23;;;;;;;2.03;1.10;;;;;;;;;;5089209;28;20695;-85
2024/04/02 03:43:49;;;;;;;3.07;1.00;;;;;;;;;;5080954;28;20286;-84
2024/04/02 03:46:15;;;;;;;1.47;0.93;;;;;;;;;;5088451;28;20208;-85
2024/04/02 03:48:42;;;;;;;3.30;0.90;;;;;;;;;;5068808;28;20197;-86
2024/04/02 03:51:08;;;;;;;3.97;1.03;;;;;;;;;;5070819;28;20268;-84
2024/04/02 03:53:34;;;;;;;3.03;0.93;;;;;;;;;;5082103;28;20761;-84
2024/04/02 03:56:02;;;;;;;2.80;1.20;;;;;;;;;;5066877;28;20261;-85
2024/04/02 03:58:29;;;;;;;2.57;0.90;;;;;;;;;;5083057;28;20183;-84
2024/04/02 04:00:55;;;;;;;2.30;1.00;;;;;;;;;;5082021;28;20237;-85
2024/04/02 04:03:21;;;;;;;2.73;1.40;;;;;;;;;;5087429;28;20193;-84
2024/04/02 04:05:47;;;;;;;4.83;1.80;;;;;;;;;;5073021;28;20688;-85
2024/04/02 04:08:13;;;;;;;8.70;1.50;;;;;;;;;;5068348;28;20191;-84
2024/04/02 04:10:39;;;;;;;6.17;1.67;;;;;;;;;;5068480;28;20182;-84
2024/04/02 04:13:05;;;;;;;3.53;1.87;;;;;;;;;;5090266;28;20246;-85
2024/04/02 04:15:32;;;;;;;6.10;2.00;;;;;;;;;;5074222;28;20590;-85
2024/04/02 04:17:58;;;;;;;8.67;2.23;;;;;;;;;;5083936;28;20212;-85
2024/04/02 04:20:29;;;;;;;8.77;2.10;;;;;;;;;;5085719;28;20224;-85
2024/04/02 04:22:55;;;;;;;29.53;13.63;;;;;;;;;;5063309;28;20545;-84
2024/04/02 04:25:21;;;;;;;10.80;3.10;;;;;;;;;;5084495;28;20198;-85
2024/04/02 04:27:47;;;;;;;9.47;2.27;;;;;;;;;;5082113;28;20603;-84
2024/04/02 04:30:13;;;;;;;12.90;4.47;;;;;;;;;;5085528;28;20188;-86
2024/04/02 04:32:39;;;;;;;13.13;2.97;;;;;;;;;;5089903;28;20195;-84
2024/04/02 04:35:05;;;;;;;15.47;4.73;;;;;;;;;;5060127;28;20288;-84
2024/04/02 04:37:32;;;;;;;9.97;2.70;;;;;;;;;;5089588;28;20706;-85
2024/04/02 04:39:58;;;;;;;18.90;4.60;;;;;;;;;;5088736;28;20200;-85
2024/04/02 04:42:24;;;;;;;12.03;2.70;;;;;;;;;;5066157;28;20559;-84
2024/04/02 04:44:50;;;;;;;15.70;3.37;;;;;;;;;;5083313;28;20184;-84
2024/04/02 04:47:16;;;;;;;21.67;7.60;;;;;;;;;;5087258;28;20732;-86
2024/04/02 04:49:42;;;;;;;17.07;5.00;;;;;;;;;;5090496;28;20204;-85
2024/04/02 04:52:09;;;;;;;23.40;4.73;;;;;;;;;;5087848;28;20587;-85
2024/04/02 04:54:35;;;;;;;23.73;8.53;;;;;;;;;;5083737;28;20205;-84
2024/04/02 04:57:01;;;;;;;11.03;3.53;;;;;;;;;;5082922;28;20208;-85
2024/04/02 04:59:27;;;;;;;16.60;4.80;;;;;;;;;;5080338;28;20186;-85
2024/04/02 05:01:53;;;;;;;10.87;3.33;;;;;;;;;;5086321;28;20674;-84
2024/04/02 05:04:19;;;;;;;17.43;3.93;;;;;;;;;;5088532;28;20182;-85
2024/04/02 05:06:47;;;;;;;16.73;3.50;;;;;;;;;;5088349;28;20195;-85
2024/04/02 05:09:13;;;;;;;13.87;3.27;;;;;;;;;;5082962;28;20181;-85
2024/04/02 05:11:39;;;;;;;27.33;5.17;;;;;;;;;;5086557;28;20231;-86
2024/04/02 05:14:05;;;;;;;20.57;5.30;;;;;;;;;;5085402;28;20623;-85
2024/04/02 05:16:33;;;;;;;18.97;4.17;;;;;;;;;;5089242;28;20252;-85
2024/04/02 05:18:59;;;;;;;18.83;3.90;;;;;;;;;;5074117;28;20257;-84
2024/04/02 05:21:25;;;;;;;14.77;4.10;;;;;;;;;;5075042;28;20600;-85
2024/04/02 05:23:51;;;;;;;13.57;2.87;;;;;;;;;;5092845;28;20185;-85
2024/04/02 05:26:17;;;;;;;20.53;5.07;;;;;;;;;;5092657;28;20213;-85
2024/04/02 05:28:43;;;;;;;19.57;4.53;;;;;;;;;;5090329;28;20185;-85
2024/04/02 05:31:11;;;;;;;26.20;7.33;;;;;;;;;;5085921;28;20231;-86
2024/04/02 05:33:37;;;;;;;15.07;3.00;;;;;;;;;;5079544;28;20714;-86
2024/04/02 05:36:03;;;;;;;17.90;4.40;;;;;;;;;;5082573;28;20258;-85
2024/04/02 05:38:29;;;;;;;15.50;2.73;;;;;;;;;;5082898;28;20212;-85
2024/04/02 05:40:55;;;;;;;11.03;2.93;;;;;;;;;;5085639;28;20227;-84
2024/04/02 05:43:24;;;;;;;19.07;3.87;;;;;;;;;;5089485;28;20191;-84
2024/04/02 05:45:50;;;;;;;11.57;3.40;;;;;;;;;;5084714;28;20196;-85
2024/04/02 05:48:16;;;;;;;12.27;3.63;;;;;;;;;;5088311;28;20215;-86
2024/04/02 05:50:42;;;;;;;10.97;3.17;;;;;;;;;;5088870;28;20196;-85
2024/04/02 05:53:08;;;;;;;12.33;2.43;;;;;;;;;;5091253;28;20187;-84
2024/04/02 05:55:33;;;;;;;18.13;3.77;;;;;;;;;;5064144;28;20278;-86
2024/04/02 05:57:59;;;;;;;14.87;3.10;;;;;;;;;;5087168;28;20183;-86
2024/04/02 06:00:28;;;;;;;13.20;2.60;;;;;;;;;;5087620;28;20272;-85
2024/04/02 06:02:54;;;;;;;16.00;2.43;;;;;;;;;;5085585;28;20604;-86
2024/04/02 06:05:20;;;;;;;13.90;3.03;;;;;;;;;;5084851;28;20280;-85
2024/04/02 06:07:46;;;;;;;10.67;2.70;;;;;;;;;;5085180;28;20273;-85
2024/04/02 06:10:12;;;;;;;21.83;3.43;;;;;;;;;;5086506;28;20185;-85
2024/04/02 06:12:43;;;;;;;14.10;3.00;;;;;;;;;;5084847;28;20246;-85
2024/04/02 06:15:09;;;;;;;6.93;1.70;;;;;;;;;;5078519;28;20233;-85
2024/04/02 06:17:35;;;;;;;11.80;2.90;;;;;;;;;;5069816;28;20217;-85
2024/04/02 06:20:04;;;;;;;15.43;2.60;;;;;;;;;;5083266;28;20190;-85
2024/04/02 06:22:42;;;;;;;14.93;2.97;;;;;;;;;;5082658;28;20664;-88
2024/04/02 06:25:08;;;;;;;10.97;3.03;;;;;;;;;;5065315;28;20189;-87
2024/04/02 06:27:34;;;;;;;11.60;2.57;;;;;;;;;;5087864;28;20182;-85
2024/04/02 06:30:00;;;;;;;17.30;3.03;;;;;;;;;;5079150;28;20665;-85
2024/04/02 06:32:26;;;;;;;14.20;3.07;;;;;;;;;;5084998;28;20189;-86
2024/04/02 06:34:51;;;;;;;16.17;2.37;;;;;;;;;;5081976;28;20194;-86
2024/04/02 06:37:17;;;;;;;7.47;1.53;;;;;;;;;;5070480;28;20212;-86
2024/04/02 06:39:43;;;;;;;12.13;2.13;;;;;;;;;;5082874;28;20276;-87
2024/04/02 06:42:09;;;;;;;10.23;1.87;;;;;;;;;;5082900;28;20634;-85
2024/04/02 06:44:35;;;;;;;13.97;2.47;;;;;;;;;;5080977;28;20657;-88
2024/04/02 06:47:01;;;;;;;11.87;2.07;;;;;;;;;;5068027;28;20208;-85
2024/04/02 06:49:27;;;;;;;10.57;2.50;;;;;;;;;;5089378;28;20237;-86
2024/04/02 06:51:54;;;;;;;13.67;2.37;;;;;;;;;;5086648;28;20306;-87
2024/04/02 06:54:19;;;;;;;11.80;2.13;;;;;;;;;;5084745;28;20834;-87
2024/04/02 06:56:45;;;;;;;16.23;1.97;;;;;;;;;;5087617;28;20205;-86
2024/04/02 06:59:11;;;;;;;11.50;2.17;;;;;;;;;;5082133;28;20181;-87
2024/04/02 07:01:37;;;;;;;14.63;2.73;;;;;;;;;;5084299;28;20193;-87
2024/04/02 07:04:03;;;;;;;11.00;2.20;;;;;;;;;;5091026;28;20273;-86
2024/04/02 07:06:29;;;;;;;10.07;1.97;;;;;;;;;;5091067;28;20259;-87
2024/04/02 07:08:58;;;;;;;9.70;1.87;;;;;;;;;;5085519;28;20192;-87
2024/04/02 07:11:24;;;;;;;13.30;2.07;;;;;;;;;;5091770;28;20239;-87
2024/04/02 07:13:50;;;;;;;13.17;2.43;;;;;;;;;;5084252;28;20551;-87
2024/04/02 07:16:16;;;;;;;10.60;2.50;;;;;;;;;;5074208;28;20232;-87
2024/04/02 07:18:42;;;;;;;9.23;2.03;;;;;;;;;;5087043;28;20181;-88
2024/04/02 07:21:09;;;;;;;18.03;1.83;;;;;;;;;;5086792;28;20181;-87
2024/04/02 07:23:36;;;;;;;13.97;1.67;;;;;;;;;;5089210;28;20200;-87
2024/04/02 07:26:02;;;;;;;10.10;1.77;;;;;;;;;;5088747;28;20199;-86
2024/04/02 07:28:28;;;;;;;14.57;2.40;;;;;;;;;;5092167;28;20275;-89
2024/04/02 07:30:54;;;;;;;17.37;2.63;;;;;;;;;;5074207;28;20209;-86
2024/04/02 07:33:20;;;;;;;15.07;2.10;;;;;;;;;;5090820;28;20186;-87
2024/04/02 07:35:47;;;;;;;8.43;1.87;;;;;;;;;;5086366;28;20256;-87
2024/04/02 07:38:13;;;;;;;8.80;2.27;;;;;;;;;;5088292;28;20182;-87
2024/04/02 07:40:40;;;;;;;11.33;2.00;;;;;;;;;;5089153;28;20623;-89
2024/04/02 07:43:06;;;;;;;8.23;1.90;;;;;;;;;;5094115;28;20190;-88
2024/04/02 07:45:32;;;;;;;9.33;2.10;;;;;;;;;;5075983;28;20677;-87
2024/04/02 07:47:58;;;;;;;10.27;2.00;;;;;;;;;;5091909;28;20738;-87
2024/04/02 07:50:27;;;;;;;11.20;2.47;;;;;;;;;;5086418;28;20185;-86
2024/04/02 07:52:53;;;;;;;10.93;3.13;;;;;;;;;;5088544;28;21606;-88
2024/04/02 07:55:19;;;;;;;10.10;1.43;;;;;;;;;;5087217;28;20242;-89
2024/04/02 07:57:45;;;;;;;16.57;2.73;;;;;;;;;;5089414;28;20331;-87
2024/04/02 08:00:11;;;;;;;12.73;2.30;;;;;;;;;;5087214;28;20174;-86
2024/04/02 08:02:37;;;;;;;10.63;2.33;;;;;;;;;;5088313;28;20189;-87
2024/04/02 08:05:03;;;;;;;11.77;2.80;;;;;;;;;;5092733;28;20182;-89
2024/04/02 08:07:29;;;;;;;15.63;3.67;;;;;;;;;;5088439;28;20208;-88
2024/04/02 08:09:55;;;;;;;10.90;2.33;;;;;;;;;;5089794;28;20189;-87
2024/04/02 08:12:21;;;;;;;11.00;2.50;;;;;;;;;;5087138;28;20197;-87
2024/04/02 08:14:47;;;;;;;13.47;2.03;;;;;;;;;;5088572;28;20210;-87
2024/04/02 08:17:15;;;;;;;13.00;2.93;;;;;;;;;;5091763;28;20232;-89
2024/04/02 08:19:41;;;;;;;11.07;2.33;;;;;;;;;;5092131;28;20193;-89
2024/04/02 08:22:07;;;;;;;7.17;1.50;;;;;;;;;;5090839;28;20221;-91
2024/04/02 08:24:33;;;;;;;7.97;1.60;;;;;;;;;;5116168;28;20200;-92
2024/04/02 08:26:59;;;;;;;11.10;2.00;;;;;;;;;;5091900;28;20210;-86
2024/04/02 08:29:25;;;;;;;7.00;1.73;;;;;;;;;;5075305;28;20178;-87
2024/04/02 08:31:51;;;;;;;7.50;2.30;;;;;;;;;;5091226;28;20189;-89
2024/04/02 08:34:17;;;;;;;8.03;1.83;;;;;;;;;;5092239;28;20278;-90
2024/04/02 08:36:43;;;;;;;9.53;1.40;;;;;;;;;;5073291;28;20205;-86
2024/04/02 08:39:09;;;;;;;10.20;1.87;;;;;;;;;;5091197;28;20185;-86
2024/04/02 08:41:38;;;;;;;9.47;2.27;;;;;;;;;;5088790;28;20175;-86
2024/04/02 08:44:18;;;;;;;9.87;1.77;;;;;;;;;;5085235;28;20190;-87
2024/04/02 08:46:57;;;;;;;8.30;2.30;;;;;;;;;;5082099;28;20202;-85
2024/04/02 08:49:33;;;;;;;8.93;1.73;;;;;;;;;;5075896;28;20177;-85
2024/04/02 08:52:05;;;;;;;8.97;2.33;;;;;;;;;;5092261;28;20427;-86
2024/04/02 08:54:32;;;;;;;9.53;1.97;;;;;;;;;;5089228;28;20925;-87
2024/04/02 08:56:58;;;;;;;7.03;2.27;;;;;;;;;;5088709;28;20218;-85
2024/04/02 08:59:26;;;;;;;9.37;1.60;;;;;;;;;;5086919;28;20700;-85
2024/04/02 09:01:53;;;;;;;8.47;1.87;;;;;;;;;;5090195;28;20278;-85
2024/04/02 09:04:37;;;;;;;7.70;1.67;;;;;;;;;;5087302;28;20179;-85
2024/04/02 09:17:51;;;;;;;6.50;1.60;;;;;;;;;;5014779;28;20234;-85
2024/04/02 09:20:32;;;;;;;4.83;1.90;;;;;;;;;;5031366;28;20222;-84
2024/04/02 09:23:01;;;;;;;9.30;1.57;;;;;;;;;;5029683;28;20187;-84
2024/04/02 09:25:45;;;;;;;10.47;2.07;;;;;;;;;;5032587;28;20184;-84
2024/04/02 09:28:29;;;;;;;4.63;1.53;;;;;;;;;;5027980;28;20268;-85
2024/04/02 09:30:55;;;;;;;4.73;1.67;;;;;;;;;;5027811;28;20184;-85
2024/04/02 09:33:28;;;;;;;9.67;1.77;;;;;;;;;;5035277;28;20190;-85
2024/04/02 09:36:17;;;;;;;10.00;1.43;;;;;;;;;;5029591;28;20287;-84
2024/04/02 09:38:48;;;;;;;10.47;1.63;;;;;;;;;;5026040;28;20607;-84
2024/04/02 09:41:17;;;;;;;9.23;1.90;;;;;;;;;;5027561;28;20621;-85
2024/04/02 09:43:43;;;;;;;8.17;1.50;;;;;;;;;;5031603;28;20309;-85
2024/04/02 09:46:09;;;;;;;7.03;1.40;;;;;;;;;;5022324;28;20686;-84
2024/04/02 09:48:41;;;;;;;9.17;1.90;;;;;;;;;;5027408;28;20233;-85
2024/04/02 09:51:09;;;;;;;6.97;1.40;;;;;;;;;;5027703;28;20203;-86
2024/04/02 09:53:37;;;;;;;2.20;0.70;;;;;;;;;;5034366;28;20192;-85
2024/04/02 09:56:07;;;;;;;5.20;1.03;;;;;;;;;;5045638;28;20659;-83
2024/04/02 09:58:38;;;;;;;4.10;1.90;;;;;;;;;;5028759;28;20225;-85
2024/04/02 10:01:07;;;;;;;4.27;1.07;;;;;;;;;;5045095;28;20191;-84
2024/04/02 10:03:37;;;;;;;4.03;1.83;;;;;;;;;;5046731;28;20190;-84
2024/04/02 10:06:13;;;;;;;4.57;1.20;;;;;;;;;;5040747;28;20182;-84
2024/04/02 10:08:48;;;;;;;5.97;1.70;;;;;;;;;;5027879;28;20288;-84
2024/04/02 10:11:18;;;;;;;7.03;1.80;;;;;;;;;;5034195;28;20194;-86
2024/04/02 10:13:48;;;;;;;3.93;1.10;;;;;;;;;;5029798;28;20202;-85
2024/04/02 10:16:21;;;;;;;5.17;0.90;;;;;;;;;;5037166;28;20689;-84
2024/04/02 10:18:56;;;;;;;3.40;0.87;;;;;;;;;;5027282;28;20215;-84
2024/04/02 10:21:25;;;;;;;5.47;1.57;;;;;;;;;;5028615;28;20202;-84
2024/04/02 10:24:01;;;;;;;7.00;1.63;;;;;;;;;;5037614;28;20281;-85
2024/04/02 10:26:54;;;;;;;10.60;1.40;;;;;;;;;;5034774;28;20186;-85
2024/04/02 10:29:40;;;;;;;7.93;1.63;;;;;;;;;;5050966;28;20194;-84
2024/04/02 10:32:14;;;;;;;9.03;1.40;;;;;;;;;;5039947;28;20192;-84
2024/04/02 10:34:50;;;;;;;7.97;1.53;;;;;;;;;;5030555;28;20196;-86
2024/04/02 10:37:16;;;;;;;9.50;1.80;;;;;;;;;;5044496;28;20225;-85
2024/04/02 10:39:45;;;;;;;5.70;1.57;;;;;;;;;;5050502;28;20207;-84
2024/04/02 10:42:16;;;;;;;12.97;2.87;;;;;;;;;;5032979;28;20180;-84
2024/04/02 10:44:51;;;;;;;11.97;1.70;;;;;;;;;;5029255;28;20172;-85
2024/04/02 10:47:32;;;;;;;11.20;1.90;;;;;;;;;;5028899;28;20201;-85
2024/04/02 10:50:02;;;;;;;10.73;2.10;;;;;;;;;;5029168;28;20189;-85
2024/04/02 10:52:42;;;;;;;11.53;1.73;;;;;;;;;;5035674;28;20326;-85
2024/04/02 10:55:10;;;;;;;10.57;1.60;;;;;;;;;;5044808;28;20210;-86
2024/04/02 10:57:51;;;;;;;10.83;1.73;;;;;;;;;;5028724;28;20228;-85
2024/04/02 11:00:22;;;;;;;9.23;1.73;;;;;;;;;;5031228;28;20606;-85
2024/04/02 11:03:01;;;;;;;9.87;2.00;;;;;;;;;;5034883;28;20537;-85
2024/04/02 11:05:32;;;;;;;10.00;2.20;;;;;;;;;;5042767;28;20393;-85
2024/04/02 11:08:12;;;;;;;11.43;2.23;;;;;;;;;;5036199;28;20206;-85
2024/04/02 11:10:49;;;;;;;7.30;1.80;;;;;;;;;;5043357;28;20190;-85
2024/04/02 11:13:47;;;;;;;10.97;2.10;;;;;;;;;;5033726;28;20624;-85
2024/04/02 11:16:24;;;;;;;9.10;1.47;;;;;;;;;;5011198;28;20774;-85
2024/04/02 11:18:57;;;;;;;13.20;2.30;;;;;;;;;;5033279;28;20220;-85
2024/04/02 11:21:26;;;;;;;14.73;3.40;;;;;;;;;;5032465;28;20181;-85
2024/04/02 11:26:51;;;;;;;7.80;1.77;;;;;;;;;;5048715;28;20591;-85
2024/04/02 11:29:35;;;;;;;14.13;2.00;;;;;;;;;;5036828;28;20241;-86
2024/04/02 11:35:14;;;;;;;8.87;2.00;;;;;;;;;;5050165;28;20393;-85
2024/04/02 11:38:04;;;;;;;6.17;1.47;;;;;;;;;;5050458;28;20235;-86
2024/04/02 11:40:37;;;;;;;6.57;1.57;;;;;;;;;;5053147;28;20192;-85
2024/04/02 11:43:23;;;;;;;15.43;2.40;;;;;;;;;;5031055;28;20664;-85
2024/04/02 11:46:16;;;;;;;12.80;3.03;;;;;;;;;;5020952;28;20545;-85
2024/04/02 11:48:50;;;;;;;24.07;7.47;;;;;;;;;;5037061;28;20199;-85
2024/04/02 11:51:52;;;;;;;;;;;;;;;;;;;;;
2024/04/02 11:54:28;;;;;;;10.83;1.97;;;;;;;;;;5047690;28;20687;-85
2024/04/02 12:02:37;;;;;;;11.60;3.20;;;;;;;;;;5051460;28;20236;-85
2024/04/02 12:05:05;;;;;;;12.00;2.13;;;;;;;;;;5053432;28;20198;-85
2024/04/02 12:07:50;;;;;;;9.13;2.37;;;;;;;;;;5032003;28;20216;-85
2024/04/02 12:10:37;;;;;;;13.20;2.00;;;;;;;;;;5035716;28;20209;-85
2024/04/02 12:13:31;;;;;;;10.40;3.23;;;;;;;;;;5022292;28;20195;-86
2024/04/02 12:15:58;;;;;;;7.90;1.87;;;;;;;;;;5047338;28;20678;-82
2024/04/02 12:18:49;;;;;;;11.10;1.97;;;;;;;;;;5034821;28;20235;-82
2024/04/02 12:21:32;;;;;;;6.77;1.80;;;;;;;;;;5053440;28;20191;-82
2024/04/02 12:24:06;;;;;;;8.37;1.80;;;;;;;;;;5039320;28;20176;-82
2024/04/02 12:27:28;;;;;;;11.33;1.90;;;;;;;;;;5045301;28;20180;-82
2024/04/02 12:30:44;;;;;;;8.97;1.97;;;;;;;;;;5051858;28;20287;-82
2024/04/02 12:36:26;;;;;;;9.50;1.60;;;;;;;;;;5060962;28;20237;-82
2024/04/02 12:38:55;;;;;;;8.93;1.33;;;;;;;;;;5037381;28;20203;-82
2024/04/02 12:41:21;;;;;;;5.77;1.17;;;;;;;;;;5053665;28;20211;-82
2024/04/02 12:43:47;;;;;;;3.50;1.20;;;;;;;;;;5037164;28;20195;-81
2024/04/02 12:46:33;;;;;;;6.50;1.70;;;;;;;;;;5038649;28;20657;-81
2024/04/02 12:49:07;;;;;;;4.67;1.20;;;;;;;;;;5035380;28;20241;-82
2024/04/02 12:51:39;;;;;;;6.10;0.97;;;;;;;;;;5041174;28;20582;-81
2024/04/02 12:54:07;;;;;;;5.57;1.53;;;;;;;;;;5031318;28;20621;-81
2024/04/02 12:56:38;;;;;;;7.77;1.23;;;;;;;;;;5032583;28;20212;-81
2024/04/02 12:59:17;;;;;;;;;;;;;;;;;;;;;
2024/04/02 13:01:58;;;;;;;4.63;1.53;;;;;;;;;;5049815;28;20184;-81
2024/04/02 13:04:43;;;;;;;10.80;1.40;;;;;;;;;;5037115;28;20429;-81
2024/04/02 13:07:22;;;;;;;;;;;;;;;;;;;;;
2024/04/02 13:09:58;;;;;;;7.13;1.67;;;;;;;;;;5053130;28;20266;-81
2024/04/02 13:12:26;;;;;;;10.37;2.83;;;;;;;;;;5037701;28;20683;-82
2024/04/02 13:14:57;;;;;;;33.37;9.70;;;;;;;;;;5027424;28;20991;-81
2024/04/02 13:17:38;;;;;;;6.87;1.47;;;;;;;;;;5034369;28;20295;-82
2024/04/02 13:20:08;;;;;;;18.13;4.93;;;;;;;;;;5033748;28;20181;-81
2024/04/02 13:22:44;;;;;;;46.87;13.10;;;;;;;;;;5044202;28;20273;-81
2024/04/02 13:25:14;;;;;;;58.43;19.57;;;;;;;;;;5051097;28;20187;-81
2024/04/02 13:27:42;;;;;;;11.97;3.63;;;;;;;;;;5039117;28;20205;-81
2024/04/02 13:30:18;;;;;;;22.47;7.90;;;;;;;;;;5034939;28;20335;-80
2024/04/02 13:32:54;;;;;;;17.93;4.83;;;;;;;;;;5053579;28;20694;-81
2024/04/02 13:35:25;;;;;;;10.50;2.10;;;;;;;;;;5040707;28;20197;-81
2024/04/02 13:38:01;;;;;;;35.23;12.90;;;;;;;;;;5028867;28;20462;-81
2024/04/02 13:40:50;;;;;;;13.27;3.50;;;;;;;;;;5037239;28;20169;-81
2024/04/02 13:43:44;;;;;;;23.47;6.03;;;;;;;;;;5032250;28;20269;-81
2024/04/02 13:46:13;;;;;;;6.57;1.90;;;;;;;;;;5032921;28;20593;-81
2024/04/02 13:48:50;;;;;;;9.40;1.83;;;;;;;;;;5030273;28;20216;-81
2024/04/02 13:51:17;;;;;;;11.33;2.23;;;;;;;;;;5037745;28;20187;-81
2024/04/02 13:53:43;;;;;;;6.73;1.60;;;;;;;;;;5054706;28;21173;-81
2024/04/02 13:56:12;;;;;;;8.63;1.87;;;;;;;;;;5044529;28;20233;-80
2024/04/02 13:58:50;;;;;;;8.13;1.73;;;;;;;;;;5047612;28;20245;-82
2024/04/02 14:01:26;;;;;;;9.10;2.03;;;;;;;;;;5041152;28;20206;-81
2024/04/02 14:06:54;;;;;;;9.20;1.80;;;;;;;;;;5050589;28;20204;-82
2024/04/02 14:09:35;;;;;;;8.80;1.90;;;;;;;;;;5052035;28;20243;-81
2024/04/02 14:12:03;;;;;;;4.80;1.27;;;;;;;;;;5046362;28;20235;-82
2024/04/02 14:14:39;;;;;;;6.57;1.53;;;;;;;;;;5034466;28;20268;-81
2024/04/02 14:17:28;;;;;;;10.27;1.77;;;;;;;;;;5055971;28;20191;-81
2024/04/02 14:20:08;;;;;;;;;;;;;;;;;;;;;
2024/04/02 14:23:05;;;;;;;;;;;;;;;;;;;;;
2024/04/02 14:25:38;;;;;;;8.73;1.67;;;;;;;;;;5044491;28;20190;-82
2024/04/02 14:28:08;;;;;;;5.03;1.73;;;;;;;;;;5035610;28;20196;-82
2024/04/02 14:30:54;;;;;;;9.93;1.60;;;;;;;;;;5032367;28;20230;-82
2024/04/02 14:36:57;;;;;;;7.70;2.00;;;;;;;;;;5060140;28;20222;-81
2024/04/02 14:39:23;;;;;;;10.67;1.97;;;;;;;;;;5048054;28;20175;-82
2024/04/02 14:42:01;;;;;;;;;;;;;;;;;;;;;
2024/04/02 14:44:51;;;;;;;7.30;1.27;;;;;;;;;;5054079;28;20275;-82
2024/04/02 14:47:26;;;;;;;7.83;1.73;;;;;;;;;;5050393;28;20207;-81
2024/04/02 14:49:53;;;;;;;8.30;2.23;;;;;;;;;;5046449;28;20229;-81
2024/04/02 14:52:19;;;;;;;10.43;2.30;;;;;;;;;;5034326;28;20176;-81
2024/04/02 14:54:45;;;;;;;9.93;1.47;;;;;;;;;;5037916;28;20304;-81
2024/04/02 14:57:11;;;;;;;7.70;1.50;;;;;;;;;;5035074;28;20237;-81
2024/04/02 14:59:41;;;;;;;4.63;1.23;;;;;;;;;;5027178;28;20184;-81
2024/04/02 15:02:24;;;;;;;4.57;1.30;;;;;;;;;;5034685;28;20179;-82
2024/04/02 15:05:16;;;;;;;6.90;1.67;;;;;;;;;;5039363;28;20191;-82
2024/04/02 15:07:42;;;;;;;8.63;1.73;;;;;;;;;;5034987;28;20215;-81
2024/04/02 15:10:15;;;;;;;6.03;1.57;;;;;;;;;;5055475;28;20180;-82
2024/04/02 15:12:41;;;;;;;7.73;2.20;;;;;;;;;;5030683;28;20684;-82
2024/04/02 15:15:17;;;;;;;;;;;;;;;;;;;;;
2024/04/02 15:18:05;;;;;;;4.50;1.23;;;;;;;;;;5052575;28;20859;-82
2024/04/02 15:20:39;;;;;;;4.83;0.90;;;;;;;;;;5054533;28;20201;-81
2024/04/02 15:23:15;;;;;;;;;;;;;;;;;;;;;
2024/04/02 15:25:49;;;;;;;15.77;4.47;;;;;;;;;;5047056;28;20206;-82
2024/04/02 15:28:15;;;;;;;4.50;0.97;;;;;;;;;;5053036;28;20285;-81
2024/04/02 15:33:31;;;;;;;10.23;3.40;;;;;;;;;;5057051;28;20200;-81
2024/04/02 15:38:47;;;;;;;6.97;1.60;;;;;;;;;;5037852;28;20211;-82
2024/04/02 15:41:28;;;;;;;9.30;1.53;;;;;;;;;;5030949;28;20202;-81